Time;durP1;ratioP1;P1;durP2;ratioP2;P2;SDS_P1;SDS_P2;PMS_P1;PMS_P2;Temp;Humidity;BMP_temperature;BMP_pressure;BME280_temperature;BME280_humidity;BME280_pressure;Samples;Min_cycle;Max_cycle;Signal;HPM_P1;HPM_P2
2023/05/23 00:00:35;;;;;;;10.57;2.53;;;;;;;15.72;100.00;96005.53;5018759;28;20203;-72
2023/05/23 00:03:02;;;;;;;3.03;1.70;;;;;;;15.73;100.00;96007.97;5019096;28;20256;-71
2023/05/23 00:05:28;;;;;;;4.35;2.17;;;;;;;15.56;100.00;96012.16;5019295;28;20235;-71
2023/05/23 00:07:56;;;;;;;3.15;1.83;;;;;;;15.65;100.00;96010.06;5018016;28;20883;-71
2023/05/23 00:10:23;;;;;;;4.22;2.20;;;;;;;15.60;100.00;96017.88;5018356;28;21038;-69
2023/05/23 00:12:49;;;;;;;4.20;2.20;;;;;;;15.50;100.00;96012.19;5019853;28;20213;-71
2023/05/23 00:15:16;;;;;;;5.97;2.65;;;;;;;15.47;100.00;96016.09;5019270;28;20211;-71
2023/05/23 00:17:43;;;;;;;4.43;2.40;;;;;;;15.46;100.00;96019.75;5018061;28;20796;-69
2023/05/23 00:20:10;;;;;;;5.28;2.22;;;;;;;15.54;100.00;96021.34;5019500;28;20202;-72
2023/05/23 00:22:38;;;;;;;4.93;2.63;;;;;;;15.46;100.00;96016.31;5018252;28;20282;-72
2023/05/23 00:25:07;;;;;;;3.15;1.83;;;;;;;15.60;100.00;96023.19;5017706;28;20198;-69
2023/05/23 00:27:34;;;;;;;3.50;1.83;;;;;;;15.44;100.00;96023.66;5017968;28;20260;-71
2023/05/23 00:30:00;;;;;;;3.88;1.92;;;;;;;15.40;100.00;96017.13;5018465;28;20337;-70
2023/05/23 00:32:27;;;;;;;4.43;1.88;;;;;;;15.35;100.00;96016.94;5018519;28;20217;-71
2023/05/23 00:34:54;;;;;;;3.35;1.95;;;;;;;15.31;100.00;96021.06;5018147;28;20194;-72
2023/05/23 00:37:21;;;;;;;3.22;2.15;;;;;;;15.44;100.00;96015.69;5018885;28;20218;-70
2023/05/23 00:39:47;;;;;;;4.47;2.35;;;;;;;15.43;100.00;96022.03;5018203;28;20230;-71
2023/05/23 00:42:15;;;;;;;5.60;2.38;;;;;;;15.47;100.00;96020.59;5017950;28;20209;-72
2023/05/23 00:44:42;;;;;;;3.60;2.13;;;;;;;15.32;100.00;96020.03;5018224;28;20241;-72
2023/05/23 00:47:08;;;;;;;2.78;1.75;;;;;;;15.32;100.00;96025.34;5018641;28;20233;-71
2023/05/23 00:49:35;;;;;;;4.00;2.22;;;;;;;15.20;100.00;96021.69;5017166;28;20198;-70
2023/05/23 00:52:03;;;;;;;5.13;2.22;;;;;;;15.14;100.00;96019.88;5017962;28;20214;-69
2023/05/23 00:54:30;;;;;;;6.18;2.05;;;;;;;15.24;100.00;96022.94;5017818;28;20373;-69
2023/05/23 00:56:58;;;;;;;3.10;2.08;;;;;;;15.23;100.00;96007.22;5015537;28;20225;-70
2023/05/23 00:59:26;;;;;;;3.72;1.98;;;;;;;15.23;100.00;96016.00;5017448;28;20209;-71
2023/05/23 01:01:55;;;;;;;4.22;2.70;;;;;;;15.10;100.00;96013.38;5017415;28;20205;-71
2023/05/23 01:04:25;;;;;;;5.43;3.25;;;;;;;15.09;100.00;96022.34;5017950;28;20418;-69
2023/05/23 01:06:52;;;;;;;3.80;1.73;;;;;;;15.13;100.00;96031.50;5017833;28;20202;-71
2023/05/23 01:09:20;;;;;;;8.20;2.92;;;;;;;15.00;100.00;96031.56;5016985;28;20202;-70
2023/05/23 01:11:55;;;;;;;4.38;2.58;;;;;;;15.23;100.00;96039.09;5017065;28;20565;-71
2023/05/23 01:14:31;;;;;;;2.92;2.10;;;;;;;15.12;100.00;96029.91;5017255;28;20201;-71
2023/05/23 01:17:01;;;;;;;4.22;2.38;;;;;;;15.10;100.00;96036.44;5018325;28;20201;-69
2023/05/23 01:19:46;;;;;;;4.82;2.53;;;;;;;15.20;100.00;96050.91;5017123;28;20201;-70
2023/05/23 01:22:23;;;;;;;1.98;1.17;;;;;;;15.12;100.00;96043.19;5017674;28;20591;-71
2023/05/23 01:24:55;;;;;;;2.05;1.42;;;;;;;15.02;100.00;96040.13;5017367;28;20224;-69
2023/05/23 01:27:29;;;;;;;6.70;2.45;;;;;;;14.88;100.00;96043.00;5016669;28;20236;-71
2023/05/23 01:30:01;;;;;;;5.15;2.42;;;;;;;14.94;100.00;96035.06;5017070;28;20225;-70
2023/05/23 01:32:28;;;;;;;5.35;2.20;;;;;;;14.86;100.00;96045.88;5017727;28;20217;-70
2023/05/23 01:34:56;;;;;;;5.75;2.60;;;;;;;14.99;100.00;96043.19;5017153;28;20204;-71
2023/05/23 01:37:22;;;;;;;4.53;2.35;;;;;;;14.96;100.00;96046.28;5016423;28;20237;-70
2023/05/23 01:39:49;;;;;;;4.03;2.20;;;;;;;14.94;100.00;96037.72;5017314;28;20202;-69
2023/05/23 01:42:16;;;;;;;5.57;2.15;;;;;;;15.00;100.00;96044.03;5017319;28;20346;-71
2023/05/23 01:44:43;;;;;;;5.00;2.25;;;;;;;14.94;100.00;96037.72;5016638;28;20234;-71
2023/05/23 01:47:13;;;;;;;4.60;2.30;;;;;;;14.93;100.00;96038.75;5017824;28;20218;-71
2023/05/23 01:49:43;;;;;;;4.90;2.80;;;;;;;14.82;100.00;96034.06;5016558;28;20202;-69
2023/05/23 01:52:10;;;;;;;5.38;2.03;;;;;;;14.71;100.00;96036.53;5016824;28;20321;-71
2023/05/23 01:54:37;;;;;;;5.32;2.42;;;;;;;14.70;100.00;96038.38;5016889;28;20268;-71
2023/05/23 01:57:05;;;;;;;3.45;1.77;;;;;;;14.73;100.00;96042.47;5016949;28;20233;-71
2023/05/23 01:59:32;;;;;;;4.57;2.35;;;;;;;14.70;100.00;96045.50;5015880;28;20198;-71
2023/05/23 02:01:59;;;;;;;3.70;1.60;;;;;;;14.74;100.00;96047.56;5016989;28;20209;-69
2023/05/23 02:04:28;;;;;;;4.00;2.80;;;;;;;14.84;100.00;96042.63;5016570;28;21269;-71
2023/05/23 02:10:16;;;;;;;5.07;2.63;;;;;;;14.77;100.00;96048.97;5013736;28;20248;-71
2023/05/23 02:12:42;;;;;;;6.63;3.50;;;;;;;14.76;100.00;96050.78;5016493;28;20803;-72
2023/05/23 02:15:09;;;;;;;4.30;2.70;;;;;;;14.74;100.00;96052.84;5016436;28;20198;-71
2023/05/23 02:17:37;;;;;;;2.08;1.77;;;;;;;14.63;100.00;96057.16;5016313;28;20221;-71
2023/05/23 02:20:06;;;;;;;5.88;3.00;;;;;;;14.70;100.00;96049.00;5015783;28;20223;-69
2023/05/23 02:22:33;;;;;;;3.28;1.63;;;;;;;14.69;100.00;96057.97;5016451;28;20210;-70
2023/05/23 02:25:00;;;;;;;5.90;2.80;;;;;;;14.48;100.00;96061.88;5016297;28;20231;-71
2023/05/23 02:27:27;;;;;;;5.28;2.60;;;;;;;14.44;100.00;96056.16;5016012;28;20963;-71
2023/05/23 02:29:54;;;;;;;8.25;2.50;;;;;;;14.56;100.00;96053.69;5016624;28;20224;-71
2023/05/23 02:32:20;;;;;;;2.88;1.63;;;;;;;14.59;100.00;96058.56;5016651;28;21058;-71
2023/05/23 02:34:49;;;;;;;7.68;2.75;;;;;;;14.63;100.00;96056.13;5016583;28;20205;-70
2023/05/23 02:37:16;;;;;;;4.13;2.00;;;;;;;14.64;100.00;96060.41;5016210;28;20741;-70
2023/05/23 02:39:43;;;;;;;2.90;1.85;;;;;;;14.47;100.00;96055.72;5015724;28;20206;-71
2023/05/23 02:42:10;;;;;;;3.30;2.25;;;;;;;14.41;100.00;96061.03;5016511;28;20202;-71
2023/05/23 02:44:36;;;;;;;4.82;2.60;;;;;;;14.44;100.00;96064.09;5018593;28;20217;-71
2023/05/23 02:47:03;;;;;;;8.13;3.05;;;;;;;14.45;100.00;96064.94;5019815;28;20225;-70
2023/05/23 02:49:29;;;;;;;3.90;2.15;;;;;;;14.42;100.00;96060.03;5020273;28;20208;-71
2023/05/23 02:51:56;;;;;;;3.40;1.85;;;;;;;14.40;100.00;96062.06;5020494;28;20666;-70
2023/05/23 02:54:23;;;;;;;3.17;2.10;;;;;;;14.40;100.00;96062.06;5019972;28;20205;-70
2023/05/23 02:56:51;;;;;;;5.70;2.28;;;;;;;14.30;100.00;96062.47;5020011;28;20248;-69
2023/05/23 02:59:17;;;;;;;6.15;2.38;;;;;;;14.37;100.00;96060.66;5020268;28;20247;-71
2023/05/23 03:01:44;;;;;;;5.85;2.75;;;;;;;14.44;100.00;96060.66;5020322;28;20206;-70
2023/05/23 03:04:12;;;;;;;4.25;1.92;;;;;;;14.44;100.00;96060.66;5019401;28;20236;-71
2023/05/23 03:06:40;;;;;;;5.15;2.63;;;;;;;14.45;100.00;96062.28;5020190;28;20252;-70
2023/05/23 03:09:07;;;;;;;9.88;3.22;;;;;;;14.41;100.00;96067.16;5020096;28;20230;-69
2023/05/23 03:11:35;;;;;;;6.82;3.45;;;;;;;14.54;100.00;96058.41;5019518;28;20206;-72
2023/05/23 03:14:02;;;;;;;9.45;2.88;;;;;;;14.44;100.00;96058.00;5020382;28;20689;-71
2023/05/23 03:16:28;;;;;;;5.47;2.38;;;;;;;14.49;100.00;96056.34;5020262;28;20200;-71
2023/05/23 03:18:55;;;;;;;8.00;2.28;;;;;;;14.37;100.00;96055.34;5019227;28;20232;-70
2023/05/23 03:21:21;;;;;;;5.47;2.58;;;;;;;14.42;100.00;96052.06;5020065;28;20197;-70
2023/05/23 03:23:48;;;;;;;5.78;3.53;;;;;;;14.47;100.00;96055.72;5019895;28;20221;-71
2023/05/23 03:26:15;;;;;;;7.25;3.28;;;;;;;14.52;100.00;96057.78;5019530;28;20216;-69
2023/05/23 03:28:43;;;;;;;5.40;2.78;;;;;;;14.59;100.00;96054.09;5018859;28;20229;-71
2023/05/23 03:31:10;;;;;;;6.53;2.67;;;;;;;14.57;100.00;96060.63;5019913;28;20209;-71
2023/05/23 03:33:36;;;;;;;9.02;3.80;;;;;;;14.58;100.00;96054.31;5019409;28;20197;-71
2023/05/23 03:36:03;;;;;;;7.65;3.30;;;;;;;14.60;100.00;96057.56;5019696;28;20206;-71
2023/05/23 03:38:29;;;;;;;7.93;4.03;;;;;;;14.63;100.00;96059.81;5019103;28;20228;-71
2023/05/23 03:40:56;;;;;;;4.80;2.70;;;;;;;14.63;100.00;96058.78;5019489;28;20202;-70
2023/05/23 03:43:22;;;;;;;8.93;2.92;;;;;;;14.64;100.00;96062.25;5019387;28;20678;-72
2023/05/23 03:45:50;;;;;;;7.57;3.53;;;;;;;14.78;100.00;96059.38;5019467;28;20229;-72
2023/05/23 03:48:17;;;;;;;7.95;3.58;;;;;;;14.80;100.00;96051.19;5018090;28;20232;-71
2023/05/23 03:50:43;;;;;;;8.77;3.70;;;;;;;14.98;100.00;96059.31;5019363;28;20198;-70
2023/05/23 03:53:10;;;;;;;7.85;3.88;;;;;;;15.05;100.00;96055.63;5019252;28;20639;-71
2023/05/23 03:55:37;;;;;;;11.55;4.43;;;;;;;15.14;100.00;96054.38;5018552;28;20198;-72
2023/05/23 03:58:03;;;;;;;14.63;5.13;;;;;;;15.24;100.00;96058.25;5018352;28;20240;-71
2023/05/23 04:00:30;;;;;;;15.50;6.35;;;;;;;15.28;100.00;96063.97;5019407;28;20198;-70
2023/05/23 04:02:57;;;;;;;18.65;8.07;;;;;;;15.37;100.00;96060.06;5018822;28;20206;-69
2023/05/23 04:05:24;;;;;;;25.30;7.15;;;;;;;15.30;100.00;96070.69;5018750;28;20229;-70
2023/05/23 04:07:51;;;;;;;14.10;5.32;;;;;;;15.11;100.00;96070.72;5018480;28;20253;-69
2023/05/23 04:10:18;;;;;;;18.27;5.95;;;;;;;14.98;100.00;96069.94;5019498;28;20205;-70
2023/05/23 04:12:44;;;;;;;18.38;6.28;;;;;;;14.97;100.00;96074.44;5018819;28;20307;-71
2023/05/23 04:15:11;;;;;;;19.90;6.07;;;;;;;15.04;100.00;96069.91;5019274;28;20198;-71
2023/05/23 04:17:37;;;;;;;13.93;6.40;;;;;;;15.14;100.00;96070.31;5018170;28;20312;-71
2023/05/23 04:20:08;;;;;;;15.20;6.10;;;;;;;15.24;100.00;96074.19;5018827;28;20704;-70
2023/05/23 04:22:34;;;;;;;14.13;4.57;;;;;;;15.15;100.00;96076.41;5018816;28;20201;-70
2023/05/23 04:25:01;;;;;;;17.27;6.30;;;;;;;15.14;100.00;96080.94;5018904;28;20225;-71
2023/05/23 04:27:27;;;;;;;16.48;5.10;;;;;;;15.17;100.00;96079.69;5017874;28;20713;-71
2023/05/23 04:29:55;;;;;;;14.52;4.53;;;;;;;15.16;100.00;96084.19;5017728;28;20206;-70
2023/05/23 04:32:21;;;;;;;9.98;4.72;;;;;;;15.29;100.00;96092.16;5018770;28;20214;-71
2023/05/23 04:34:48;;;;;;;12.20;4.25;;;;;;;15.14;100.00;96096.03;5018845;28;20206;-71
2023/05/23 04:37:20;;;;;;;10.88;3.42;;;;;;;15.22;100.00;96099.31;5017370;28;20735;-71
2023/05/23 04:39:47;;;;;;;8.43;3.97;;;;;;;15.22;100.00;96096.66;5018270;28;20252;-71
2023/05/23 04:42:14;;;;;;;7.85;3.85;;;;;;;15.24;100.00;96099.13;5018379;28;20221;-71
2023/05/23 04:44:40;;;;;;;9.18;4.60;;;;;;;15.32;100.00;96097.03;5018449;28;20226;-71
2023/05/23 04:47:07;;;;;;;6.45;3.13;;;;;;;15.56;100.00;96105.13;5017863;28;20229;-71
2023/05/23 04:49:35;;;;;;;8.27;3.83;;;;;;;15.56;100.00;96107.78;5018011;28;20194;-70
2023/05/23 04:52:02;;;;;;;8.50;3.95;;;;;;;15.56;100.00;96101.66;5018092;28;20206;-72
2023/05/23 04:54:30;;;;;;;8.52;3.55;;;;;;;15.73;100.00;96100.13;5018244;28;20225;-71
2023/05/23 04:56:56;;;;;;;16.95;5.47;;;;;;;15.84;100.00;96106.41;5018082;28;20544;-72
2023/05/23 04:59:23;;;;;;;17.25;5.05;;;;;;;16.04;100.00;96107.13;5017785;28;20202;-70
2023/05/23 05:01:49;;;;;;;20.33;5.93;;;;;;;16.13;100.00;96116.47;5018192;28;20198;-70
2023/05/23 05:04:16;;;;;;;11.23;4.20;;;;;;;16.19;100.00;96109.47;5017669;28;20663;-71
2023/05/23 05:06:42;;;;;;;11.10;4.93;;;;;;;16.32;100.00;96114.75;5017926;28;20208;-70
2023/05/23 05:09:09;;;;;;;11.65;4.63;;;;;;;16.44;100.00;96113.84;5016332;28;20213;-70
2023/05/23 05:11:36;;;;;;;13.63;6.05;;;;;;;16.52;100.00;96110.91;5017673;28;20205;-71
2023/05/23 05:14:03;;;;;;;15.07;5.95;;;;;;;16.67;100.00;96108.75;5018222;28;20673;-73
2023/05/23 05:16:29;;;;;;;14.13;6.35;;;;;;;16.70;100.00;96113.63;5018188;28;20198;-73
2023/05/23 05:18:56;;;;;;;19.95;7.13;;;;;;;16.76;100.00;96113.59;5017282;28;20221;-71
2023/05/23 05:21:22;;;;;;;10.25;5.35;;;;;;;16.88;100.00;96111.03;5017632;28;20673;-72
2023/05/23 05:23:50;;;;;;;18.25;6.35;;;;;;;16.97;100.00;96112.38;5017440;28;20197;-71
2023/05/23 05:26:16;;;;;;;16.55;7.18;;;;;;;17.03;100.00;96115.00;5017569;28;20229;-71
2023/05/23 05:28:44;;;;;;;10.85;5.13;;;;;;;17.06;100.00;96113.75;5016974;28;20225;-71
2023/05/23 05:31:13;;;;;;;14.48;4.88;;;;;;;17.17;100.00;96111.97;5017342;28;20202;-71
2023/05/23 05:33:40;;;;;;;16.45;7.30;;;;;;;17.25;100.00;96116.25;5017317;28;20217;-69
2023/05/23 05:36:07;;;;;;;17.55;6.70;;;;;;;17.41;100.00;96115.66;5017648;28;20201;-71
2023/05/23 05:38:33;;;;;;;14.13;6.97;;;;;;;17.48;100.00;96124.41;5016803;28;20218;-71
2023/05/23 05:41:00;;;;;;;16.33;7.68;;;;;;;17.46;100.00;96124.59;5016939;28;21012;-70
2023/05/23 05:43:26;;;;;;;14.05;6.93;;;;;;;17.50;100.00;96131.13;5017365;28;20205;-69
2023/05/23 05:45:54;;;;;;;19.08;6.95;;;;;;;17.60;100.00;96135.94;5017296;28;20221;-71
2023/05/23 05:48:21;;;;;;;21.50;6.55;;;;;;;17.50;100.00;96149.78;5016792;28;20692;-69
2023/05/23 05:50:47;;;;;;;15.55;6.13;;;;;;;17.37;100.00;96146.44;5017008;28;20201;-71
2023/05/23 05:53:14;;;;;;;9.38;4.00;;;;;;;17.37;100.00;96155.22;5017063;28;20205;-70
2023/05/23 05:55:40;;;;;;;19.25;7.40;;;;;;;17.47;100.00;96150.19;5017596;28;20202;-71
2023/05/23 05:58:07;;;;;;;16.77;5.40;;;;;;;17.38;100.00;96159.53;5016107;28;20221;-71
2023/05/23 06:00:40;;;;;;;12.85;6.40;;;;;;;17.37;100.00;96160.53;5016901;28;20206;-70
2023/05/23 06:03:08;;;;;;;14.73;6.80;;;;;;;17.35;100.00;96157.31;5016897;28;20202;-72
2023/05/23 06:05:36;;;;;;;14.23;6.80;;;;;;;17.32;100.00;96159.59;5016482;28;20298;-74
2023/05/23 06:08:02;;;;;;;15.07;6.25;;;;;;;17.31;100.00;96161.44;5016118;28;20316;-70
2023/05/23 06:10:29;;;;;;;13.50;6.32;;;;;;;17.36;100.00;96161.59;5017467;28;20259;-69
2023/05/23 06:12:56;;;;;;;16.42;8.02;;;;;;;17.37;100.00;96165.88;5016591;28;20678;-71
2023/05/23 06:15:22;;;;;;;12.23;5.93;;;;;;;17.56;100.00;96164.88;5016705;28;20197;-74
2023/05/23 06:17:50;;;;;;;10.57;4.65;;;;;;;17.48;100.00;96164.34;5017615;28;20572;-69
2023/05/23 06:20:18;;;;;;;23.80;6.95;;;;;;;17.75;100.00;96166.50;5016195;28;20220;-72
2023/05/23 06:22:44;;;;;;;20.05;7.03;;;;;;;17.62;100.00;96163.19;5017286;28;20213;-73
2023/05/23 06:25:11;;;;;;;15.73;5.80;;;;;;;17.60;100.00;96162.56;5017929;28;20702;-73
2023/05/23 06:27:37;;;;;;;16.00;6.85;;;;;;;17.65;100.00;96168.84;5017616;28;20766;-71
2023/05/23 06:30:06;;;;;;;16.38;7.38;;;;;;;17.67;100.00;96166.81;5017564;28;20209;-73
2023/05/23 06:32:33;;;;;;;16.65;7.43;;;;;;;17.59;100.00;96175.09;5018362;28;21323;-69
2023/05/23 06:34:59;;;;;;;15.52;6.47;;;;;;;17.64;100.00;96169.91;5018299;28;20210;-72
2023/05/23 06:37:27;;;;;;;16.30;5.53;;;;;;;17.63;100.00;96170.13;5016132;28;20232;-70
2023/05/23 06:39:53;;;;;;;17.63;6.22;;;;;;;17.63;100.00;96170.94;5015972;28;20666;-72
2023/05/23 06:42:20;;;;;;;20.35;6.90;;;;;;;17.73;100.00;96165.91;5015518;28;20280;-73
2023/05/23 06:44:46;;;;;;;12.60;5.95;;;;;;;17.71;100.00;96175.19;5014025;28;20198;-70
2023/05/23 06:47:13;;;;;;;15.73;6.55;;;;;;;17.78;100.00;96171.38;5014268;28;20297;-71
2023/05/23 06:49:39;;;;;;;16.27;7.40;;;;;;;17.78;100.00;96176.72;5015029;28;20202;-73
2023/05/23 06:52:06;;;;;;;23.50;6.15;;;;;;;17.81;100.00;96168.28;5015406;28;20206;-70
2023/05/23 06:54:34;;;;;;;16.52;6.00;;;;;;;17.86;100.00;96173.75;5014953;28;20578;-71
2023/05/23 06:57:00;;;;;;;15.25;6.40;;;;;;;17.77;100.00;96170.56;5015163;28;20201;-71
2023/05/23 06:59:27;;;;;;;14.75;6.18;;;;;;;17.79;100.00;96165.00;5014519;28;20198;-71
2023/05/23 07:01:53;;;;;;;10.57;5.38;;;;;;;17.97;100.00;96165.00;5014843;28;20209;-73
2023/05/23 07:04:20;;;;;;;14.73;5.47;;;;;;;18.08;100.00;96174.94;5014485;28;20194;-71
2023/05/23 07:06:46;;;;;;;14.75;5.60;;;;;;;18.08;100.00;96182.94;5014659;28;20317;-74
2023/05/23 07:09:13;;;;;;;15.43;7.07;;;;;;;18.07;100.00;96181.28;5014585;28;20206;-74
2023/05/23 07:11:41;;;;;;;10.65;4.43;;;;;;;18.17;100.00;96184.25;5013334;28;20678;-71
2023/05/23 07:14:07;;;;;;;28.73;7.70;;;;;;;18.15;100.00;96179.16;5012523;28;20206;-74
2023/05/23 07:16:34;;;;;;;19.00;6.30;;;;;;;18.19;100.00;96179.50;5015352;28;20202;-70
2023/05/23 07:19:01;;;;;;;13.77;6.70;;;;;;;18.39;100.00;96179.06;5014586;28;20710;-70
2023/05/23 07:21:28;;;;;;;15.88;7.22;;;;;;;18.46;100.00;96185.09;5015505;28;21178;-74
2023/05/23 07:23:54;;;;;;;9.95;4.57;;;;;;;18.61;100.00;96172.16;5015691;28;20204;-70
2023/05/23 07:26:21;;;;;;;22.55;6.28;;;;;;;18.75;100.00;96184.28;5015126;28;20226;-70
2023/05/23 07:28:49;;;;;;;7.80;3.83;;;;;;;18.56;100.00;96182.69;5014762;28;20287;-69
2023/05/23 07:31:15;;;;;;;15.88;5.10;;;;;;;18.62;100.00;96180.97;5016811;28;20202;-71
2023/05/23 07:33:42;;;;;;;20.70;7.47;;;;;;;18.42;100.00;96181.25;5018620;28;20205;-71
2023/05/23 07:36:08;;;;;;;12.95;5.53;;;;;;;18.65;100.00;96178.66;5017796;28;20666;-71
2023/05/23 07:38:35;;;;;;;5.03;4.10;;;;;;;18.52;100.00;96180.69;5018689;28;20225;-71
2023/05/23 07:41:01;;;;;;;12.05;6.05;;;;;;;18.57;100.00;96183.50;5017688;28;20212;-73
2023/05/23 07:43:28;;;;;;;16.92;4.65;;;;;;;18.65;100.00;96183.19;5018773;28;20602;-70
2023/05/23 07:45:56;;;;;;;13.48;5.75;;;;;;;18.80;100.00;96181.72;5018951;28;20232;-70
2023/05/23 07:48:22;;;;;;;12.70;5.40;;;;;;;18.78;100.00;96191.81;5017431;28;20228;-70
2023/05/23 07:50:53;;;;;;;14.18;5.93;;;;;;;18.85;100.00;96189.88;5018071;28;20288;-71
2023/05/23 07:53:20;;;;;;;7.78;3.92;;;;;;;18.88;100.00;96194.75;5019013;28;21020;-71
2023/05/23 07:55:46;;;;;;;10.18;4.35;;;;;;;18.90;100.00;96197.97;5018378;28;20206;-71
2023/05/23 07:58:13;;;;;;;15.23;6.55;;;;;;;18.94;100.00;96191.16;5017577;28;20222;-71
2023/05/23 08:00:40;;;;;;;16.85;5.13;;;;;;;18.89;100.00;96188.38;5019165;28;20221;-70
2023/05/23 08:03:08;;;;;;;16.85;5.90;;;;;;;18.95;100.00;96196.28;5018648;28;20201;-70
2023/05/23 08:05:34;;;;;;;14.50;5.43;;;;;;;18.94;100.00;96196.50;5018475;28;20237;-70
2023/05/23 08:08:01;;;;;;;11.32;5.40;;;;;;;19.06;100.00;96195.50;5017946;28;20225;-71
2023/05/23 08:10:28;;;;;;;13.63;5.13;;;;;;;19.11;100.00;96187.63;5018323;28;20474;-70
2023/05/23 08:12:55;;;;;;;15.00;6.55;;;;;;;18.75;100.00;96200.28;5018311;28;20229;-70
2023/05/23 08:15:23;;;;;;;16.42;6.55;;;;;;;18.84;100.00;96196.25;5019311;28;20241;-71
2023/05/23 08:17:49;;;;;;;14.23;5.47;;;;;;;18.78;100.00;96199.81;5018186;28;20226;-71
2023/05/23 08:20:17;;;;;;;15.73;5.95;;;;;;;18.49;100.00;96192.63;5018483;28;20209;-71
2023/05/23 08:22:43;;;;;;;18.02;6.22;;;;;;;18.15;100.00;96197.81;5018291;28;20256;-70
2023/05/23 08:25:10;;;;;;;16.73;6.05;;;;;;;18.08;100.00;96207.72;5018100;28;20209;-70
2023/05/23 08:27:36;;;;;;;13.90;6.82;;;;;;;18.12;100.00;96202.78;5017216;28;20795;-71
2023/05/23 08:30:04;;;;;;;11.07;4.13;;;;;;;18.14;100.00;96204.19;5017713;28;20205;-69
2023/05/23 08:32:30;;;;;;;19.27;6.97;;;;;;;18.01;100.00;96204.34;5018510;28;20683;-71
2023/05/23 08:34:57;;;;;;;15.93;6.25;;;;;;;18.31;100.00;96207.09;5018176;28;20205;-72
2023/05/23 08:37:25;;;;;;;16.95;5.95;;;;;;;18.47;100.00;96208.06;5016865;28;20653;-69
2023/05/23 08:39:52;;;;;;;10.40;6.38;;;;;;;18.46;100.00;96213.66;5018118;28;20201;-68
2023/05/23 08:42:18;;;;;;;13.85;5.72;;;;;;;18.59;100.00;96206.25;5018499;28;20198;-70
2023/05/23 08:44:45;;;;;;;15.15;6.07;;;;;;;18.61;100.00;96219.38;5017851;28;20206;-71
2023/05/23 08:47:13;;;;;;;15.90;6.57;;;;;;;18.61;100.00;96219.38;5017010;28;20253;-70
2023/05/23 08:49:40;;;;;;;11.30;5.68;;;;;;;18.53;100.00;96215.19;5017839;28;20209;-71
2023/05/23 08:52:10;;;;;;;17.63;7.22;;;;;;;18.68;100.00;96220.09;5017594;28;20212;-70
2023/05/23 08:54:39;;;;;;;19.02;6.63;;;;;;;18.45;100.00;96218.16;5017922;28;20206;-70
2023/05/23 08:57:06;;;;;;;9.65;5.07;;;;;;;18.44;100.00;96219.22;5017693;28;20621;-71
2023/05/23 08:59:35;;;;;;;16.20;6.30;;;;;;;18.51;100.00;96219.13;5016595;28;20212;-71
2023/05/23 09:02:03;;;;;;;14.70;6.20;;;;;;;18.67;100.00;96219.31;5017543;28;20615;-71
2023/05/23 09:04:31;;;;;;;14.02;7.60;;;;;;;18.69;100.00;96222.53;5017564;28;21154;-70
2023/05/23 09:06:58;;;;;;;13.10;4.45;;;;;;;19.04;100.00;96226.13;5017140;28;20265;-71
2023/05/23 09:09:25;;;;;;;13.60;5.53;;;;;;;19.24;100.00;96227.47;5016667;28;20198;-71
2023/05/23 09:11:55;;;;;;;14.73;7.32;;;;;;;19.26;100.00;96232.59;5017005;28;20206;-70
2023/05/23 09:14:21;;;;;;;14.52;5.60;;;;;;;19.42;100.00;96234.59;5016771;28;20202;-70
2023/05/23 09:16:48;;;;;;;14.93;6.18;;;;;;;19.54;100.00;96235.41;5017205;28;20198;-71
2023/05/23 09:19:15;;;;;;;10.13;4.70;;;;;;;19.82;100.00;96231.78;5016626;28;20593;-70
2023/05/23 09:21:43;;;;;;;12.73;4.88;;;;;;;19.91;100.00;96233.09;5017173;28;20202;-70
2023/05/23 09:24:09;;;;;;;17.83;5.70;;;;;;;19.73;98.36;96233.19;5017075;28;20220;-71
2023/05/23 09:26:36;;;;;;;11.35;5.75;;;;;;;19.87;98.90;96234.59;5017033;28;20233;-72
2023/05/23 09:29:06;;;;;;;10.15;5.38;;;;;;;20.11;96.59;96230.88;5016284;28;20749;-70
2023/05/23 09:31:32;;;;;;;8.85;4.57;;;;;;;20.27;95.06;96230.91;5016695;28;20650;-70
2023/05/23 09:33:59;;;;;;;12.88;5.63;;;;;;;20.42;94.26;96225.88;5017366;28;20228;-71
2023/05/23 09:36:28;;;;;;;17.65;4.57;;;;;;;20.49;91.84;96223.06;5016858;28;20205;-71
2023/05/23 09:38:55;;;;;;;8.35;3.92;;;;;;;20.25;91.36;96221.50;5015972;28;20331;-69
2023/05/23 09:41:21;;;;;;;11.82;5.85;;;;;;;20.32;91.07;96224.88;5017007;28;20696;-71
2023/05/23 09:43:52;;;;;;;10.65;5.25;;;;;;;20.56;88.29;96218.41;5016462;28;20222;-72
2023/05/23 09:46:20;;;;;;;8.95;4.43;;;;;;;20.93;91.56;96223.16;5016656;28;20224;-71
2023/05/23 09:48:48;;;;;;;8.70;3.85;;;;;;;20.50;88.52;96224.69;5015573;28;20233;-70
2023/05/23 09:51:15;;;;;;;7.95;4.45;;;;;;;20.40;89.90;96208.44;5016694;28;20237;-71
2023/05/23 09:53:41;;;;;;;11.93;5.20;;;;;;;20.58;90.76;96218.97;5016135;28;20324;-71
2023/05/23 09:56:11;;;;;;;12.90;5.10;;;;;;;20.43;92.24;96216.81;5015890;28;20198;-70
2023/05/23 09:58:39;;;;;;;8.30;4.38;;;;;;;20.29;91.38;96220.00;5015895;28;20221;-70
2023/05/23 10:01:09;;;;;;;15.07;4.53;;;;;;;20.40;91.87;96219.97;5016188;28;20209;-71
2023/05/23 10:03:44;;;;;;;10.82;4.20;;;;;;;20.76;92.05;96216.13;5016201;28;20198;-72
2023/05/23 10:06:17;;;;;;;10.23;5.03;;;;;;;20.69;89.09;96218.13;5016533;28;20225;-71
2023/05/23 10:08:45;;;;;;;8.45;4.53;;;;;;;20.68;90.00;96217.28;5016037;28;20229;-70
2023/05/23 10:11:48;;;;;;;11.07;5.05;;;;;;;20.64;88.99;96218.00;5015497;28;20212;-69
2023/05/23 10:14:16;;;;;;;9.35;4.60;;;;;;;20.52;89.44;96212.69;5016692;28;20197;-71
2023/05/23 10:16:53;;;;;;;11.30;4.68;;;;;;;21.00;88.47;96216.59;5016270;28;20316;-71
2023/05/23 10:19:24;;;;;;;8.50;4.70;;;;;;;21.03;90.17;96210.75;5015636;28;20201;-71
2023/05/23 10:21:58;;;;;;;12.38;4.63;;;;;;;21.22;85.18;96205.94;5015639;28;20201;-69
2023/05/23 10:24:25;;;;;;;8.20;3.45;;;;;;;21.12;84.41;96208.47;5016559;28;20210;-71
2023/05/23 10:26:53;;;;;;;12.10;4.90;;;;;;;21.65;84.11;96204.25;5015840;28;20255;-71
2023/05/23 10:29:20;;;;;;;12.20;4.95;;;;;;;21.79;83.68;96187.59;5015237;28;20209;-69
2023/05/23 10:31:48;;;;;;;10.40;4.07;;;;;;;22.14;81.98;96196.91;5016136;28;20218;-70
2023/05/23 10:34:23;;;;;;;10.55;5.22;;;;;;;22.26;81.55;96197.66;5016438;28;20213;-71
2023/05/23 10:36:59;;;;;;;11.70;4.68;;;;;;;22.59;79.85;96194.78;5015447;28;20204;-70
2023/05/23 10:39:46;;;;;;;8.82;4.22;;;;;;;22.84;82.30;96195.88;5015311;28;20665;-74
2023/05/23 10:42:17;;;;;;;8.88;4.55;;;;;;;22.15;79.81;96195.06;5015653;28;20198;-69
2023/05/23 10:44:43;;;;;;;8.52;4.22;;;;;;;22.21;83.81;96200.22;5015557;28;20198;-72
2023/05/23 10:47:11;;;;;;;10.93;5.32;;;;;;;22.23;80.66;96195.41;5015890;28;20769;-72
2023/05/23 10:49:39;;;;;;;11.10;4.63;;;;;;;22.28;82.66;96195.50;5015450;28;20206;-71
2023/05/23 10:52:08;;;;;;;12.10;4.95;;;;;;;22.27;83.04;96188.50;5015899;28;20210;-72
2023/05/23 10:54:35;;;;;;;8.57;4.32;;;;;;;22.08;83.77;96199.78;5015711;28;20202;-72
2023/05/23 18:52:08;;;;;;;3.83;2.10;;;;;;;19.29;70.02;96296.25;5081296;27;20532;-73
2023/05/23 18:54:34;;;;;;;2.35;1.52;;;;;;;19.10;69.82;96302.72;5073428;28;20749;-70
2023/05/23 18:57:02;;;;;;;1.95;1.20;;;;;;;18.92;70.54;96310.75;5075543;28;20203;-73
2023/05/23 18:59:28;;;;;;;2.97;1.70;;;;;;;18.82;71.33;96315.00;5074303;28;20695;-72
2023/05/23 19:01:58;;;;;;;24.17;2.08;;;;;;;18.57;71.78;96316.94;5076022;28;20218;-72
2023/05/23 19:04:24;;;;;;;1.70;1.25;;;;;;;18.48;72.90;96321.78;5076728;28;20200;-72
2023/05/23 19:06:51;;;;;;;2.05;1.33;;;;;;;18.46;72.61;96323.06;5076461;28;21230;-73
2023/05/23 19:09:19;;;;;;;1.15;1.05;;;;;;;18.33;73.93;96326.69;5074291;28;20685;-73
2023/05/23 19:11:46;;;;;;;2.65;1.33;;;;;;;18.28;74.07;96330.22;5076214;28;20227;-74
2023/05/23 19:14:12;;;;;;;2.10;1.35;;;;;;;18.15;75.04;96330.34;5074791;28;20668;-72
2023/05/23 19:16:39;;;;;;;2.25;1.23;;;;;;;18.14;75.14;96339.38;5075928;28;20268;-74
2023/05/23 19:19:06;;;;;;;1.77;1.45;;;;;;;18.01;76.37;96339.50;5075190;28;20695;-73
2023/05/23 19:21:32;;;;;;;1.70;1.10;;;;;;;17.95;78.28;96351.06;5076976;28;20646;-73